Time;durP1;ratioP1;P1;durP2;ratioP2;P2;SDS_P1;SDS_P2;PMS_P1;PMS_P2;Temp;Humidity;BMP_temperature;BMP_pressure;BME280_temperature;BME280_humidity;BME280_pressure;Samples;Min_cycle;Max_cycle;Signal;HPM_P1;HPM_P2
2022/01/12 00:01:01;;;;;;;;;;;;;;;0.79;60.51;95611.59;5075563;28;1049;-49
2022/01/12 00:03:27;;;;;;;;;;;;;;;0.80;61.56;95615.94;5075655;28;1060;-48
2022/01/12 00:05:53;;;;;;;;;;;;;;;0.76;60.56;95611.78;5075768;28;1905;-48
2022/01/12 00:08:19;;;;;;;;;;;;;;;0.83;60.77;95630.69;5075425;28;1082;-48
2022/01/12 00:10:45;;;;;;;;;;;;;;;0.69;60.44;95621.81;5075570;28;1844;-49
2022/01/12 00:13:11;;;;;;;;;;;;;;;0.71;60.16;95625.19;5075211;28;1049;-49
2022/01/12 00:15:38;;;;;;;;;;;;;;;0.68;60.23;95612.22;5075277;28;969;-49
2022/01/12 00:18:04;;;;;;;;;;;;;;;0.64;60.37;95630.91;5075548;28;1056;-48
2022/01/12 00:20:30;;;;;;;;;;;;;;;0.75;60.60;95620.59;5075384;28;1036;-48
2022/01/12 00:22:57;;;;;;;;;;;;;;;0.69;59.79;95627.06;5075270;28;1882;-49
2022/01/12 00:25:45;;;;;;;;;;;;;;;0.72;60.99;95623.41;5075010;28;965;-49
2022/01/12 00:33:38;;;;;;;;;;;;;;;0.72;60.60;95633.94;5075098;28;1043;-49
2022/01/12 00:36:04;;;;;;;;;;;;;;;0.81;60.75;95630.78;5074731;28;1259;-49
2022/01/12 00:38:30;;;;;;;;;;;;;;;0.68;61.15;95632.41;5074757;28;1052;-48
2022/01/12 00:40:57;;;;;;;;;;;;;;;0.73;61.08;95636.47;5074900;28;1060;-49
2022/01/12 00:43:26;;;;;;;;;;;;;;;0.66;61.39;95639.56;5075013;28;984;-49
2022/01/12 00:45:52;;;;;;;;;;;;;;;0.62;61.39;95643.31;5074668;28;1991;-49
2022/01/12 00:48:18;;;;;;;;;;;;;;;0.60;61.92;95637.28;5073624;28;984;-48
2022/01/12 00:50:45;;;;;;;;;;;;;;;0.61;61.21;95625.81;5074590;28;1989;-49
2022/01/12 00:53:13;;;;;;;;;;;;;;;0.59;60.80;95633.81;5074560;28;1084;-49
2022/01/12 00:55:39;;;;;;;;;;;;;;;0.57;61.62;95651.50;5074434;28;1015;-49
2022/01/12 00:58:05;;;;;;;;;;;;;;;0.58;61.34;95632.94;5074530;28;1055;-49
2022/01/12 01:00:31;;;;;;;;;;;;;;;0.54;61.76;95638.50;5074421;28;993;-49
2022/01/12 01:02:58;;;;;;;;;;;;;;;0.39;62.63;95635.78;5074629;28;974;-49
2022/01/12 01:05:25;;;;;;;;;;;;;;;0.36;61.93;95629.84;5074246;28;1056;-49
2022/01/12 01:07:51;;;;;;;;;;;;;;;0.30;61.87;95630.22;5074311;28;1994;-49
2022/01/12 01:10:32;;;;;;;;;;;;;;;0.37;62.10;95628.94;5073133;28;969;-49
2022/01/12 01:12:59;;;;;;;;;;;;;;;0.44;61.89;95626.78;5074433;28;945;-49
2022/01/12 01:15:42;;;;;;;;;;;;;;;0.35;62.47;95629.00;5073957;28;1083;-49
2022/01/12 01:26:22;;;;;;;;;;;;;;;0.32;61.42;95642.38;5073838;28;1985;-48
2022/01/12 01:28:48;;;;;;;;;;;;;;;0.31;61.52;95639.81;5073674;28;1048;-49
2022/01/12 01:31:14;;;;;;;;;;;;;;;0.34;62.25;95637.00;5073969;28;1142;-49
2022/01/12 01:33:40;;;;;;;;;;;;;;;0.36;61.38;95624.59;5074114;28;969;-49
2022/01/12 01:36:06;;;;;;;;;;;;;;;0.38;61.68;95636.75;5073126;28;1173;-49
2022/01/12 01:38:32;;;;;;;;;;;;;;;0.38;61.28;95628.84;5073883;28;1122;-49
2022/01/12 01:40:58;;;;;;;;;;;;;;;0.49;61.06;95630.00;5073520;28;1083;-49
2022/01/12 01:54:04;;;;;;;;;;;;;;;0.37;61.29;95631.56;5074061;28;1060;-49
2022/01/12 01:56:31;;;;;;;;;;;;;;;0.39;61.23;95630.53;5073582;28;1020;-49
2022/01/12 01:58:57;;;;;;;;;;;;;;;0.40;61.39;95636.66;5073249;28;1104;-49
2022/01/12 02:01:23;;;;;;;;;;;;;;;0.41;61.54;95627.81;5073357;28;1072;-49
2022/01/12 02:03:49;;;;;;;;;;;;;;;0.31;62.13;95630.13;5073505;28;968;-48
2022/01/12 02:06:16;;;;;;;;;;;;;;;0.50;61.11;95632.56;5073142;28;1910;-49
2022/01/12 02:08:42;;;;;;;;;;;;;;;0.41;61.84;95655.91;5073411;28;993;-49
2022/01/12 02:11:08;;;;;;;;;;;;;;;0.38;61.97;95642.00;5073356;28;1015;-49
2022/01/12 02:13:34;;;;;;;;;;;;;;;0.34;62.29;95647.50;5073238;28;1053;-48
2022/01/12 02:16:00;;;;;;;;;;;;;;;0.21;62.64;95639.50;5073284;28;981;-49
2022/01/12 02:40:22;;;;;;;;;;;;;;;0.23;62.33;95658.66;5073161;28;1117;-49
2022/01/12 02:43:15;;;;;;;;;;;;;;;0.33;61.46;95658.97;5072925;28;1080;-49
2022/01/12 02:53:49;;;;;;;;;;;;;;;0.27;61.06;95670.69;5077164;28;1040;-49
2022/01/12 02:56:27;;;;;;;;;;;;;;;0.31;61.23;95682.75;5076659;28;1049;-49
2022/01/12 02:58:53;;;;;;;;;;;;;;;0.22;61.90;95682.41;5076479;28;1036;-49
2022/01/12 03:03:59;;;;;;;;;;;;;;;0.15;61.23;95693.28;5076994;28;989;-49
2022/01/12 03:06:32;;;;;;;;;;;;;;;0.04;61.61;95679.88;5076397;28;1988;-49
2022/01/12 03:08:59;;;;;;;;;;;;;;;-0.05;62.14;95693.50;5076790;28;1055;-49
2022/01/12 03:11:25;;;;;;;;;;;;;;;0.03;61.80;95693.94;5076323;28;1056;-49
2022/01/12 03:13:52;;;;;;;;;;;;;;;0.14;61.48;95693.34;5076756;28;973;-49
2022/01/12 03:16:21;;;;;;;;;;;;;;;0.15;61.34;95701.16;5076437;28;974;-49
2022/01/12 03:18:50;;;;;;;;;;;;;;;0.15;61.49;95706.44;5076484;28;1924;-49
2022/01/12 03:21:17;;;;;;;;;;;;;;;0.11;61.23;95706.66;5076143;28;1033;-49
2022/01/12 03:23:43;;;;;;;;;;;;;;;0.11;61.00;95712.75;5076313;28;1045;-49
2022/01/12 03:26:09;;;;;;;;;;;;;;;0.14;61.04;95712.59;5076313;28;1918;-49
2022/01/12 03:28:38;;;;;;;;;;;;;;;0.04;61.30;95708.78;5076163;28;1048;-49
2022/01/12 03:31:18;;;;;;;;;;;;;;;0.02;61.77;95718.53;5076369;28;977;-49
2022/01/12 04:09:27;;;;;;;;;;;;;;;-0.17;60.46;95744.09;5075585;28;1048;-49
2022/01/12 04:11:53;;;;;;;;;;;;;;;-0.23;60.60;95764.53;5075133;28;1060;-49
2022/01/12 04:14:19;;;;;;;;;;;;;;;-0.14;60.29;95767.59;5075644;28;1031;-49
2022/01/12 04:16:45;;;;;;;;;;;;;;;-0.17;60.79;95765.13;5075725;28;1067;-49
2022/01/12 04:19:11;;;;;;;;;;;;;;;-0.11;60.11;95781.44;5075384;28;1012;-49
2022/01/12 04:21:43;;;;;;;;;;;;;;;-0.20;60.36;95776.66;5074215;28;980;-49
2022/01/12 04:24:09;;;;;;;;;;;;;;;-0.16;60.30;95772.94;5075096;28;1044;-48
2022/01/12 04:26:36;;;;;;;;;;;;;;;-0.24;60.22;95785.63;5075029;28;1910;-49
2022/01/12 04:29:02;;;;;;;;;;;;;;;-0.27;60.02;95784.00;5075071;28;1040;-48
2022/01/12 04:31:28;;;;;;;;;;;;;;;-0.33;59.99;95796.63;5075016;28;1054;-49
2022/01/12 04:33:54;;;;;;;;;;;;;;;-0.38;60.01;95798.63;5074840;28;1136;-49
2022/01/12 04:36:20;;;;;;;;;;;;;;;-0.34;60.02;95792.28;5074756;28;1256;-49
2022/01/12 04:38:46;;;;;;;;;;;;;;;-0.31;59.68;95792.13;5074811;28;1061;-48
2022/01/12 04:41:12;;;;;;;;;;;;;;;-0.42;59.95;95801.44;5074675;28;1108;-49
2022/01/12 04:43:40;;;;;;;;;;;;;;;-0.36;59.52;95796.78;5074732;28;1887;-49
2022/01/12 04:48:37;;;;;;;;;;;;;;;-0.44;60.01;95802.41;5074720;28;1025;-49
2022/01/12 04:51:03;;;;;;;;;;;;;;;-0.42;59.63;95809.31;5074872;28;1043;-48
2022/01/12 04:53:30;;;;;;;;;;;;;;;-0.36;59.58;95800.28;5074409;28;1040;-49
2022/01/12 04:55:57;;;;;;;;;;;;;;;-0.33;59.45;95812.38;5074427;28;1034;-48
2022/01/12 04:58:24;;;;;;;;;;;;;;;-0.46;59.75;95817.41;5074330;28;1048;-49
2022/01/12 05:00:56;;;;;;;;;;;;;;;-0.46;60.27;95812.16;5074688;28;957;-49
2022/01/12 05:13:58;;;;;;;;;;;;;;;-0.53;60.26;95840.53;5074215;28;1015;-49
2022/01/12 05:16:24;;;;;;;;;;;;;;;-0.57;59.87;95843.38;5074134;28;1987;-49
2022/01/12 05:18:52;;;;;;;;;;;;;;;-0.53;59.32;95843.16;5073892;28;1056;-48
2022/01/12 05:21:19;;;;;;;;;;;;;;;-0.57;59.78;95846.00;5074255;28;1020;-49
2022/01/12 05:23:45;;;;;;;;;;;;;;;-0.64;60.20;95855.97;5073899;28;1089;-49
2022/01/12 05:26:11;;;;;;;;;;;;;;;-0.66;60.01;95858.66;5073899;28;2012;-49
2022/01/12 05:28:40;;;;;;;;;;;;;;;-0.66;60.11;95850.78;5073772;28;1005;-49
2022/01/12 05:31:07;;;;;;;;;;;;;;;-0.58;59.90;95862.72;5073974;28;1060;-49
2022/01/12 05:33:33;;;;;;;;;;;;;;;-0.67;60.18;95869.25;5073646;28;1987;-49
2022/01/12 05:36:02;;;;;;;;;;;;;;;-0.73;59.99;95873.03;5073958;28;1248;-49
2022/01/12 05:38:28;;;;;;;;;;;;;;;-0.75;60.09;95872.25;5073517;28;1052;-49
2022/01/12 05:41:00;;;;;;;;;;;;;;;-0.80;60.71;95877.75;5073859;28;977;-49
2022/01/12 05:43:29;;;;;;;;;;;;;;;-0.71;60.41;95879.06;5073584;28;966;-49
2022/01/12 05:46:00;;;;;;;;;;;;;;;-0.78;60.63;95877.63;5073629;28;1117;-49
2022/01/12 05:51:10;;;;;;;;;;;;;;;-0.81;60.54;95883.91;5073746;28;1056;-49
2022/01/12 05:53:36;;;;;;;;;;;;;;;-0.92;60.96;95893.22;5073476;28;1064;-49
2022/01/12 05:56:02;;;;;;;;;;;;;;;-0.78;60.91;95890.78;5073505;28;1048;-49
2022/01/12 05:58:29;;;;;;;;;;;;;;;-0.82;60.26;95889.22;5073023;28;1036;-49
2022/01/12 06:00:54;;;;;;;;;;;;;;;-0.79;60.16;95889.09;5073727;28;985;-49
2022/01/12 06:03:20;;;;;;;;;;;;;;;-0.70;59.98;95903.53;5073538;28;1175;-49
2022/01/12 06:05:46;;;;;;;;;;;;;;;-0.77;60.28;95910.03;5073303;28;1055;-49
2022/01/12 06:08:12;;;;;;;;;;;;;;;-0.79;60.27;95912.72;5073341;28;1993;-48
2022/01/12 06:10:38;;;;;;;;;;;;;;;-0.78;60.48;95911.78;5073077;28;1037;-49
2022/01/12 06:13:04;;;;;;;;;;;;;;;-0.85;60.69;95913.03;5073301;28;993;-49
2022/01/12 06:15:30;;;;;;;;;;;;;;;-0.80;60.84;95925.00;5073247;28;1031;-49
2022/01/12 06:17:56;;;;;;;;;;;;;;;-0.67;60.48;95927.03;5073509;28;973;-49
2022/01/12 06:20:22;;;;;;;;;;;;;;;-0.67;59.76;95930.50;5073144;28;977;-49
2022/01/12 06:22:48;;;;;;;;;;;;;;;-0.68;59.77;95938.47;5073228;28;977;-49
2022/01/12 06:25:15;;;;;;;;;;;;;;;-0.62;59.97;95939.03;5072943;28;973;-49
2022/01/12 06:27:52;;;;;;;;;;;;;;;-0.55;60.30;95939.59;5072923;28;1926;-48
2022/01/12 06:32:56;;;;;;;;;;;;;;;-0.57;60.44;95948.44;5073429;28;992;-47
2022/01/12 06:35:22;;;;;;;;;;;;;;;-0.53;60.19;95952.63;5073009;28;1198;-48
2022/01/12 06:37:49;;;;;;;;;;;;;;;-0.29;59.14;95956.69;5072911;28;1201;-48
2022/01/12 06:40:16;;;;;;;;;;;;;;;0.10;58.14;95953.00;5072762;28;997;-48
2022/01/12 06:42:42;;;;;;;;;;;;;;;0.25;58.39;95966.28;5073306;28;973;-49
2022/01/12 06:45:09;;;;;;;;;;;;;;;0.62;57.26;95964.41;5073019;28;1048;-48
2022/01/12 06:47:35;;;;;;;;;;;;;;;1.27;55.39;95960.00;5072904;28;1914;-48
2022/01/12 06:50:01;;;;;;;;;;;;;;;1.73;54.14;95965.31;5072867;28;1977;-48
2022/01/12 06:52:27;;;;;;;;;;;;;;;2.76;51.18;95970.78;5072882;28;1116;-48
2022/01/12 06:54:54;;;;;;;;;;;;;;;4.03;47.35;95973.28;5072607;28;1068;-49
2022/01/12 06:57:20;;;;;;;;;;;;;;;7.91;39.50;95968.81;5072638;28;1096;-49
2022/01/12 06:59:46;;;;;;;;;;;;;;;7.35;39.87;95971.53;5072899;28;1024;-49
2022/01/12 07:02:12;;;;;;;;;;;;;;;5.63;42.52;95975.56;5072935;28;1053;-49
2022/01/12 07:04:38;;;;;;;;;;;;;;;4.91;45.09;95985.91;5072763;28;1068;-49
2022/01/12 07:07:05;;;;;;;;;;;;;;;8.22;38.38;95987.59;5072892;28;2025;-49
2022/01/12 07:09:31;;;;;;;;;;;;;;;11.49;33.38;95987.19;5072444;28;1136;-49
2022/01/12 07:11:57;;;;;;;;;;;;;;;11.80;31.57;95995.00;5072995;28;1032;-47
2022/01/12 07:14:23;;;;;;;;;;;;;;;10.17;33.40;95983.38;5072810;28;984;-47
2022/01/12 07:16:49;;;;;;;;;;;;;;;8.60;36.53;95997.78;5072736;28;1051;-47
2022/01/12 07:19:14;;;;;;;;;;;;;;;6.50;39.48;96001.94;5072592;28;1100;-47
2022/01/12 07:21:41;;;;;;;;;;;;;;;6.76;38.98;95994.66;5072541;28;1181;-47
2022/01/12 07:24:07;;;;;;;;;;;;;;;8.72;36.12;96003.91;5072449;28;1219;-47
2022/01/12 07:26:33;;;;;;;;;;;;;;;10.65;32.21;96006.66;5072339;28;1988;-47
2022/01/12 07:28:59;;;;;;;;;;;;;;;11.60;31.25;96007.59;5072397;28;1136;-47
2022/01/12 07:31:25;;;;;;;;;;;;;;;10.24;32.24;96008.53;5072501;28;1029;-47
2022/01/12 07:33:51;;;;;;;;;;;;;;;8.72;35.31;96016.38;5073194;28;1048;-47
2022/01/12 07:36:17;;;;;;;;;;;;;;;6.65;38.29;96021.22;5075821;28;1138;-48
2022/01/12 07:38:43;;;;;;;;;;;;;;;5.02;41.88;96017.84;5076131;28;1045;-47
2022/01/12 07:41:09;;;;;;;;;;;;;;;3.56;44.84;96008.09;5076100;28;964;-47
2022/01/12 07:43:35;;;;;;;;;;;;;;;2.99;46.16;96012.47;5076019;28;1116;-47
2022/01/12 07:46:01;;;;;;;;;;;;;;;2.63;47.60;96020.84;5076016;28;1001;-47
2022/01/12 07:48:27;;;;;;;;;;;;;;;2.61;48.05;96028.00;5075939;28;2005;-48
2022/01/12 07:50:53;;;;;;;;;;;;;;;2.37;48.69;96028.47;5075867;28;988;-47
2022/01/12 07:53:19;;;;;;;;;;;;;;;2.09;49.05;96035.38;5075837;28;1055;-47
2022/01/12 07:55:45;;;;;;;;;;;;;;;1.91;49.51;96039.06;5075469;28;953;-47
2022/01/12 07:58:11;;;;;;;;;;;;;;;1.70;50.03;96034.03;5075800;28;1028;-47
2022/01/12 08:00:37;;;;;;;;;;;;;;;1.49;50.73;96035.25;5075517;28;1104;-46
2022/01/12 08:03:03;;;;;;;;;;;;;;;1.48;50.72;96049.34;5075861;28;1040;-47
2022/01/12 08:05:29;;;;;;;;;;;;;;;1.45;51.48;96046.88;5075521;28;985;-47
2022/01/12 08:07:55;;;;;;;;;;;;;;;1.87;50.11;96048.06;5075519;28;1964;-47
2022/01/12 08:10:22;;;;;;;;;;;;;;;1.73;50.00;96054.97;5075333;28;953;-46
2022/01/12 08:12:48;;;;;;;;;;;;;;;1.69;49.93;96053.44;5075698;28;969;-47
2022/01/12 08:15:14;;;;;;;;;;;;;;;1.85;50.23;96063.97;5075724;28;973;-47
2022/01/12 08:17:40;;;;;;;;;;;;;;;1.83;50.20;96059.75;5075397;28;1059;-47
2022/01/12 08:20:10;;;;;;;;;;;;;;;2.00;49.68;96059.63;5075281;28;1124;-47
2022/01/12 08:22:37;;;;;;;;;;;;;;;2.09;49.76;96061.75;5075244;28;1079;-48
2022/01/12 08:25:03;;;;;;;;;;;;;;;2.04;50.25;96076.16;5075152;28;977;-48
2022/01/12 08:27:29;;;;;;;;;;;;;;;1.98;50.05;96079.97;5074988;28;1910;-48
2022/01/12 08:30:00;;;;;;;;;;;;;;;2.07;49.38;96084.75;5075168;28;1097;-48
2022/01/12 08:32:27;;;;;;;;;;;;;;;1.96;50.68;96073.94;5075109;28;1057;-48
2022/01/12 08:34:53;;;;;;;;;;;;;;;2.03;50.21;96080.59;5075132;28;1158;-48
2022/01/12 08:37:19;;;;;;;;;;;;;;;2.06;50.30;96072.47;5074607;28;1346;-48
2022/01/12 08:39:45;;;;;;;;;;;;;;;2.02;49.56;96080.66;5075170;28;965;-49
2022/01/12 08:42:11;;;;;;;;;;;;;;;1.84;50.19;96082.53;5073679;28;1051;-49
2022/01/12 08:44:37;;;;;;;;;;;;;;;2.01;50.10;96082.47;5075045;28;1051;-49
2022/01/12 08:47:05;;;;;;;;;;;;;;;2.15;49.76;96076.38;5074613;28;1990;-48
2022/01/12 08:49:31;;;;;;;;;;;;;;;2.53;49.20;96087.38;5074765;28;1040;-48
2022/01/12 08:51:57;;;;;;;;;;;;;;;2.31;48.90;96092.19;5075071;28;1020;-47
2022/01/12 08:54:23;;;;;;;;;;;;;;;2.41;49.24;96092.50;5074707;28;1112;-47
2022/01/12 08:56:49;;;;;;;;;;;;;;;2.45;48.56;96089.63;5074546;28;1092;-48
2022/01/12 08:59:16;;;;;;;;;;;;;;;2.49;48.96;96096.41;5074480;28;1052;-47
2022/01/12 09:01:41;;;;;;;;;;;;;;;2.42;49.15;96091.59;5074481;28;988;-48
2022/01/12 09:04:08;;;;;;;;;;;;;;;2.47;48.96;96095.66;5074471;28;1055;-48
2022/01/12 09:06:34;;;;;;;;;;;;;;;2.74;48.27;96095.00;5074174;28;1906;-47
2022/01/12 09:09:00;;;;;;;;;;;;;;;4.11;44.68;96105.13;5074282;28;965;-47
2022/01/12 09:11:26;;;;;;;;;;;;;;;6.33;41.23;96095.34;5074360;28;1000;-48
2022/01/12 09:13:52;;;;;;;;;;;;;;;7.91;37.41;96099.28;5074228;28;1132;-48
2022/01/12 09:16:18;;;;;;;;;;;;;;;8.15;36.78;96098.28;5074309;28;1032;-48
2022/01/12 09:18:44;;;;;;;;;;;;;;;8.43;35.77;96090.78;5074160;28;968;-48
2022/01/12 09:21:10;;;;;;;;;;;;;;;8.81;34.55;96098.28;5074154;28;1001;-48
2022/01/12 09:23:36;;;;;;;;;;;;;;;10.84;32.04;96090.56;5073814;28;1311;-48
2022/01/12 09:26:03;;;;;;;;;;;;;;;12.54;31.27;96091.56;5073101;28;1065;-48
2022/01/12 09:28:29;;;;;;;;;;;;;;;11.21;30.97;96088.03;5072294;28;1902;-48
2022/01/12 09:30:56;;;;;;;;;;;;;;;9.31;32.88;96095.00;5074146;28;989;-48
2022/01/12 09:33:22;;;;;;;;;;;;;;;7.84;35.89;96090.09;5073789;28;977;-48
2022/01/12 09:35:50;;;;;;;;;;;;;;;10.96;31.70;96089.44;5073820;28;1153;-48
2022/01/12 09:38:16;;;;;;;;;;;;;;;13.08;28.93;96103.22;5073336;28;1365;-48
2022/01/12 09:40:44;;;;;;;;;;;;;;;14.51;26.71;96093.09;5074040;28;1044;-48
2022/01/12 09:43:10;;;;;;;;;;;;;;;15.16;25.23;96090.59;5073659;28;1059;-48
2022/01/12 09:45:38;;;;;;;;;;;;;;;17.18;23.58;96103.94;5074168;28;981;-49
2022/01/12 09:48:04;;;;;;;;;;;;;;;18.84;21.17;96104.91;5073426;28;1910;-49
2022/01/12 09:50:31;;;;;;;;;;;;;;;15.58;23.81;96089.59;5073437;28;1067;-48
2022/01/12 09:52:57;;;;;;;;;;;;;;;13.42;27.72;96087.25;5073389;28;1033;-48
2022/01/12 09:55:23;;;;;;;;;;;;;;;14.28;26.00;96088.28;5073646;28;977;-48
2022/01/12 09:57:49;;;;;;;;;;;;;;;16.67;24.19;96083.78;5072827;28;1045;-49
2022/01/12 10:00:15;;;;;;;;;;;;;;;18.58;21.74;96088.28;5073578;28;1049;-50
2022/01/12 10:02:42;;;;;;;;;;;;;;;13.76;25.16;96091.03;5073400;28;965;-50
2022/01/12 10:05:09;;;;;;;;;;;;;;;16.52;23.96;96079.13;5073359;28;1071;-50
2022/01/12 10:07:35;;;;;;;;;;;;;;;14.96;25.05;96078.44;5073346;28;1906;-49
2022/01/12 10:10:05;;;;;;;;;;;;;;;16.68;23.14;96080.06;5073615;28;921;-50
2022/01/12 10:12:31;;;;;;;;;;;;;;;16.45;22.78;96079.97;5073479;28;930;-50
2022/01/12 10:15:00;;;;;;;;;;;;;;;17.08;22.08;96086.28;5073461;28;1164;-49
2022/01/12 10:17:31;;;;;;;;;;;;;;;12.40;27.12;96079.50;5073239;28;1015;-50
2022/01/12 10:20:05;;;;;;;;;;;;;;;15.32;23.63;96087.06;5073135;28;1116;-49
2022/01/12 10:22:31;;;;;;;;;;;;;;;14.34;25.10;96086.78;5073193;28;1051;-49
2022/01/12 10:24:59;;;;;;;;;;;;;;;11.42;28.89;96074.47;5073253;28;1043;-49
2022/01/12 10:27:25;;;;;;;;;;;;;;;9.32;31.38;96078.03;5072959;28;1989;-49
2022/01/12 10:29:55;;;;;;;;;;;;;;;8.60;33.05;96082.25;5073112;28;1044;-49
2022/01/12 10:32:21;;;;;;;;;;;;;;;9.45;32.33;96080.50;5073085;28;1036;-49
2022/01/12 10:34:48;;;;;;;;;;;;;;;7.07;35.14;96080.06;5072827;28;1153;-48
2022/01/12 10:37:15;;;;;;;;;;;;;;;5.79;38.35;96080.59;5072710;28;1296;-49
2022/01/12 10:39:46;;;;;;;;;;;;;;;4.90;39.73;96079.66;5073077;28;1071;-48
2022/01/12 10:42:30;;;;;;;;;;;;;;;5.49;39.43;96084.44;5073100;28;1005;-48
2022/01/12 10:44:57;;;;;;;;;;;;;;;8.39;34.85;96075.00;5072845;28;1013;-49
2022/01/12 10:47:24;;;;;;;;;;;;;;;8.75;33.82;96078.31;5073091;28;1905;-49
2022/01/12 10:49:53;;;;;;;;;;;;;;;8.05;35.34;96076.03;5073058;28;937;-49
2022/01/12 10:52:20;;;;;;;;;;;;;;;7.07;36.78;96076.56;5072960;28;973;-48
2022/01/12 10:54:48;;;;;;;;;;;;;;;9.38;33.28;96074.84;5072774;28;1123;-49
2022/01/12 10:57:15;;;;;;;;;;;;;;;7.28;36.38;96066.09;5072700;28;1032;-49
2022/01/12 10:59:41;;;;;;;;;;;;;;;7.14;37.07;96078.63;5072730;28;1032;-48
2022/01/12 11:02:07;;;;;;;;;;;;;;;6.83;37.51;96073.00;5072742;28;1053;-48
2022/01/12 11:04:33;;;;;;;;;;;;;;;7.18;36.89;96074.78;5072883;28;1044;-49
2022/01/12 11:06:59;;;;;;;;;;;;;;;7.25;36.32;96072.50;5072842;28;1906;-49
2022/01/12 11:09:26;;;;;;;;;;;;;;;7.13;36.64;96068.13;5074099;28;1055;-49
2022/01/12 11:11:53;;;;;;;;;;;;;;;5.92;38.29;96069.94;5076756;28;1061;-48
2022/01/12 11:14:19;;;;;;;;;;;;;;;4.32;41.86;96063.16;5076268;28;918;-49
2022/01/12 11:16:45;;;;;;;;;;;;;;;4.92;40.81;96072.44;5076594;28;945;-48
2022/01/12 11:19:12;;;;;;;;;;;;;;;5.41;40.32;96065.56;5076471;28;993;-48
2022/01/12 11:21:43;;;;;;;;;;;;;;;5.04;41.91;96062.78;5076401;28;1104;-48
2022/01/12 11:24:13;;;;;;;;;;;;;;;5.04;41.26;96057.50;5076263;28;1324;-48
2022/01/12 11:26:46;;;;;;;;;;;;;;;3.84;43.96;96060.09;5076285;28;2074;-48
2022/01/12 11:29:12;;;;;;;;;;;;;;;3.74;44.38;96051.03;5076207;28;1041;-48
2022/01/12 11:31:40;;;;;;;;;;;;;;;4.08;44.08;96055.88;5076556;28;976;-49
2022/01/12 11:34:16;;;;;;;;;;;;;;;5.03;42.43;96050.50;5076195;28;949;-49
2022/01/12 11:36:41;;;;;;;;;;;;;;;4.76;42.13;96056.75;5074711;28;1231;-49
2022/01/12 11:39:10;;;;;;;;;;;;;;;4.57;42.81;96050.94;5075848;28;981;-49
2022/01/12 11:41:37;;;;;;;;;;;;;;;3.84;44.66;96053.00;5074853;28;1143;-48
2022/01/12 11:44:16;;;;;;;;;;;;;;;4.00;44.85;96057.31;5076083;28;1047;-48
2022/01/12 11:46:50;;;;;;;;;;;;;;;4.07;44.93;96061.28;5076050;28;1910;-48
2022/01/12 11:49:40;;;;;;;;;;;;;;;4.01;44.91;96065.16;5075797;28;976;-48
2022/01/12 11:52:18;;;;;;;;;;;;;;;3.37;46.25;96062.13;5076003;28;1029;-48
2022/01/12 11:54:47;;;;;;;;;;;;;;;3.60;46.34;96062.50;5075862;28;1052;-48
2022/01/12 11:57:20;;;;;;;;;;;;;;;3.70;45.67;96069.78;5075492;28;1053;-48
2022/01/12 11:59:49;;;;;;;;;;;;;;;3.94;46.14;96068.31;5075724;28;1071;-49
2022/01/12 12:02:15;;;;;;;;;;;;;;;4.10;45.88;96067.22;5075577;28;1096;-49
2022/01/12 12:04:55;;;;;;;;;;;;;;;4.04;45.54;96067.63;5075759;28;1140;-49
2022/01/12 12:07:22;;;;;;;;;;;;;;;3.95;45.81;96067.38;5075606;28;1909;-48
2022/01/12 12:09:53;;;;;;;;;;;;;;;3.62;46.20;96057.97;5075614;28;981;-48
2022/01/12 12:12:20;;;;;;;;;;;;;;;3.03;47.56;96068.63;5075586;28;1043;-48
2022/01/12 12:14:47;;;;;;;;;;;;;;;2.75;47.81;96075.56;5075258;28;1112;-49
2022/01/12 12:17:15;;;;;;;;;;;;;;;2.43;49.09;96070.38;5075321;28;1040;-48
2022/01/12 12:19:41;;;;;;;;;;;;;;;2.48;49.87;96064.81;5075108;28;1075;-48
2022/01/12 12:22:11;;;;;;;;;;;;;;;2.34;49.44;96076.19;5075430;28;974;-49
2022/01/12 12:24:38;;;;;;;;;;;;;;;2.42;49.46;96071.31;5075310;28;1039;-49
2022/01/12 12:27:04;;;;;;;;;;;;;;;2.47;49.50;96071.06;5075209;28;2001;-49
2022/01/12 12:29:30;;;;;;;;;;;;;;;2.54;49.12;96077.66;5074810;28;1052;-49
2022/01/12 12:31:57;;;;;;;;;;;;;;;2.79;48.78;96068.28;5075296;28;1009;-49
2022/01/12 12:34:24;;;;;;;;;;;;;;;2.25;49.50;96076.72;5075087;28;1883;-48
2022/01/12 12:37:10;;;;;;;;;;;;;;;2.04;50.03;96074.34;5074560;28;1154;-48
2022/01/12 12:39:40;;;;;;;;;;;;;;;2.07;50.02;96076.81;5074906;28;1125;-48
2022/01/12 12:42:14;;;;;;;;;;;;;;;2.21;49.75;96076.03;5074876;28;1055;-48
2022/01/12 12:44:40;;;;;;;;;;;;;;;2.26;49.74;96078.44;5074949;28;1036;-48
2022/01/12 12:47:08;;;;;;;;;;;;;;;2.07;49.40;96079.47;5074896;28;1913;-48
2022/01/12 12:49:44;;;;;;;;;;;;;;;2.06;50.42;96079.56;5074943;28;997;-48
2022/01/12 12:52:10;;;;;;;;;;;;;;;2.23;50.28;96089.16;5074534;28;1104;-48
2022/01/12 12:54:39;;;;;;;;;;;;;;;2.07;49.87;96090.03;5074704;28;1224;-48
2022/01/12 12:57:07;;;;;;;;;;;;;;;1.90;50.71;96092.75;5074782;28;1035;-48
2022/01/12 12:59:34;;;;;;;;;;;;;;;2.01;50.46;96093.00;5074831;28;976;-48
2022/01/12 13:02:00;;;;;;;;;;;;;;;2.17;50.17;96078.94;5074397;28;1128;-48
2022/01/12 13:04:26;;;;;;;;;;;;;;;2.04;50.09;96084.91;5074506;28;985;-48
2022/01/12 13:06:54;;;;;;;;;;;;;;;2.16;49.96;96075.44;5074233;28;1902;-48
2022/01/12 13:09:20;;;;;;;;;;;;;;;2.01;50.70;96087.72;5074312;28;1877;-48
2022/01/12 13:11:49;;;;;;;;;;;;;;;2.03;50.53;96082.34;5074484;28;1024;-48
2022/01/12 13:14:16;;;;;;;;;;;;;;;1.80;51.43;96081.84;5074407;28;1028;-48
2022/01/12 13:16:53;;;;;;;;;;;;;;;1.88;51.27;96089.34;5074269;28;1120;-48
2022/01/12 13:22:33;;;;;;;;;;;;;;;1.71;51.71;96100.81;5073991;28;1076;-48
2022/01/12 13:25:01;;;;;;;;;;;;;;;1.71;51.79;96101.66;5074159;28;1045;-48
2022/01/12 13:27:27;;;;;;;;;;;;;;;1.48;52.19;96091.50;5073655;28;1906;-48
2022/01/12 13:29:54;;;;;;;;;;;;;;;1.40;52.42;96097.19;5074082;28;1012;-48
2022/01/12 13:32:20;;;;;;;;;;;;;;;1.45;52.65;96103.06;5072969;28;1043;-48
2022/01/12 13:34:56;;;;;;;;;;;;;;;1.46;52.43;96101.28;5074051;28;1154;-48
2022/01/12 13:37:22;;;;;;;;;;;;;;;1.45;52.97;96102.22;5073745;28;1085;-48
2022/01/12 13:40:21;;;;;;;;;;;;;;;1.38;53.15;96108.75;5073802;28;1052;-48
2022/01/12 13:42:54;;;;;;;;;;;;;;;1.49;52.94;96099.34;5040205;28;1365;-48
2022/01/12 13:45:25;;;;;;;;;;;;;;;1.39;52.70;96106.03;5073924;28;1043;-48
2022/01/12 13:47:57;;;;;;;;;;;;;;;1.39;52.20;96102.56;5073659;28;1979;-48
2022/01/12 13:50:26;;;;;;;;;;;;;;;1.29;52.81;96105.69;5073453;28;1053;-48
2022/01/12 13:52:54;;;;;;;;;;;;;;;1.31;52.78;96111.72;5073585;28;945;-48
2022/01/12 13:55:20;;;;;;;;;;;;;;;1.21;53.22;96122.81;5073471;28;993;-49
2022/01/12 13:57:55;;;;;;;;;;;;;;;1.22;53.24;96114.00;5073507;28;985;-48
2022/01/12 14:00:40;;;;;;;;;;;;;;;1.11;53.79;96125.09;5073545;28;1064;-48
2022/01/12 14:03:23;;;;;;;;;;;;;;;1.15;52.83;96126.63;5073461;28;997;-48
2022/01/12 14:05:57;;;;;;;;;;;;;;;1.01;53.81;96122.09;5073340;28;1052;-48
2022/01/12 14:08:28;;;;;;;;;;;;;;;0.84;53.77;96124.72;5073496;28;1910;-48
2022/01/12 14:10:55;;;;;;;;;;;;;;;0.98;53.20;96136.25;5073486;28;1047;-48
2022/01/12 14:13:28;;;;;;;;;;;;;;;1.00;53.33;96130.91;5072039;28;1884;-48
2022/01/12 14:16:04;;;;;;;;;;;;;;;0.91;53.42;96139.25;5073322;28;1042;-48
2022/01/12 14:18:30;;;;;;;;;;;;;;;0.83;53.44;96134.38;5073223;28;1033;-48
2022/01/12 14:20:59;;;;;;;;;;;;;;;0.69;53.64;96144.78;5073437;28;1079;-48
2022/01/12 14:23:25;;;;;;;;;;;;;;;0.64;53.89;96145.00;5073219;28;1044;-48
2022/01/12 14:25:52;;;;;;;;;;;;;;;0.60;54.64;96146.06;5073348;28;991;-48
2022/01/12 14:28:23;;;;;;;;;;;;;;;0.71;54.20;96149.03;5072713;28;1913;-48
2022/01/12 14:30:49;;;;;;;;;;;;;;;0.65;54.36;96148.50;5073073;28;1065;-48
2022/01/12 14:33:15;;;;;;;;;;;;;;;0.50;55.04;96143.06;5071967;28;1061;-47
2022/01/12 14:35:41;;;;;;;;;;;;;;;0.50;55.01;96145.69;5073150;28;1233;-48
2022/01/12 14:38:08;;;;;;;;;;;;;;;0.49;54.52;96157.13;5072741;28;1085;-47
2022/01/12 14:40:34;;;;;;;;;;;;;;;0.59;54.08;96152.28;5073051;28;1106;-49
2022/01/12 14:43:01;;;;;;;;;;;;;;;0.42;55.09;96168.03;5073672;28;1012;-48
2022/01/12 14:45:32;;;;;;;;;;;;;;;0.37;54.93;96165.63;5077062;28;1072;-48
2022/01/12 14:48:00;;;;;;;;;;;;;;;0.47;55.53;96153.72;5077236;28;1902;-48
2022/01/12 14:50:28;;;;;;;;;;;;;;;0.32;55.08;96162.34;5077098;28;997;-48
2022/01/12 14:52:54;;;;;;;;;;;;;;;0.22;55.52;96161.94;5076866;28;1084;-48
2022/01/12 14:55:21;;;;;;;;;;;;;;;0.30;55.53;96172.09;5076998;28;1037;-48
2022/01/12 14:57:47;;;;;;;;;;;;;;;0.32;55.53;96172.88;5076604;28;1112;-47
2022/01/12 15:00:18;;;;;;;;;;;;;;;0.21;55.44;96176.03;5076818;28;1016;-47
2022/01/12 15:02:44;;;;;;;;;;;;;;;0.25;55.18;96171.47;5076948;28;961;-48
2022/01/12 15:05:10;;;;;;;;;;;;;;;0.39;55.97;96174.28;5076820;28;1019;-48